sensor_id;sensor_type;location;lat;lon;timestamp;P1;durP1;ratioP1;P2;durP2;ratioP2
56718;SDS011;42597;40.636;0.278;2023-04-28T00:01:20;17.95;;;11.45;;
56718;SDS011;42597;40.636;0.278;2023-04-28T00:03:46;17.88;;;12.23;;
56718;SDS011;42597;40.636;0.278;2023-04-28T00:06:12;33.90;;;11.32;;
56718;SDS011;42597;40.636;0.278;2023-04-28T00:08:38;33.42;;;13.60;;
56718;SDS011;42597;40.636;0.278;2023-04-28T00:11:08;13.18;;;9.68;;
56718;SDS011;42597;40.636;0.278;2023-04-28T00:13:35;14.25;;;9.27;;
56718;SDS011;42597;40.636;0.278;2023-04-28T00:16:01;13.32;;;8.95;;
56718;SDS011;42597;40.636;0.278;2023-04-28T00:18:27;8.40;;;6.57;;
56718;SDS011;42597;40.636;0.278;2023-04-28T00:20:53;9.48;;;5.20;;
56718;SDS011;42597;40.636;0.278;2023-04-28T00:23:20;8.88;;;5.38;;
56718;SDS011;42597;40.636;0.278;2023-04-28T00:25:52;8.93;;;5.35;;
56718;SDS011;42597;40.636;0.278;2023-04-28T00:28:19;8.73;;;6.05;;
56718;SDS011;42597;40.636;0.278;2023-04-28T00:30:44;11.45;;;7.80;;
56718;SDS011;42597;40.636;0.278;2023-04-28T00:33:11;9.02;;;7.65;;
56718;SDS011;42597;40.636;0.278;2023-04-28T00:35:37;11.63;;;7.45;;
56718;SDS011;42597;40.636;0.278;2023-04-28T00:38:03;10.07;;;7.03;;
56718;SDS011;42597;40.636;0.278;2023-04-28T00:40:36;8.70;;;6.75;;
56718;SDS011;42597;40.636;0.278;2023-04-28T00:43:03;10.25;;;7.13;;
56718;SDS011;42597;40.636;0.278;2023-04-28T00:45:29;13.45;;;9.27;;
56718;SDS011;42597;40.636;0.278;2023-04-28T00:47:55;11.38;;;9.18;;
56718;SDS011;42597;40.636;0.278;2023-04-28T00:50:23;9.80;;;8.43;;
56718;SDS011;42597;40.636;0.278;2023-04-28T00:52:52;11.38;;;9.10;;
56718;SDS011;42597;40.636;0.278;2023-04-28T00:55:20;12.52;;;8.82;;
56718;SDS011;42597;40.636;0.278;2023-04-28T00:57:46;8.82;;;7.47;;
56718;SDS011;42597;40.636;0.278;2023-04-28T01:00:12;11.13;;;7.97;;
56718;SDS011;42597;40.636;0.278;2023-04-28T01:02:39;8.60;;;6.78;;
56718;SDS011;42597;40.636;0.278;2023-04-28T01:05:05;7.13;;;5.38;;
56718;SDS011;42597;40.636;0.278;2023-04-28T01:07:32;9.32;;;6.45;;
56718;SDS011;42597;40.636;0.278;2023-04-28T01:09:59;9.13;;;5.93;;
56718;SDS011;42597;40.636;0.278;2023-04-28T01:12:24;8.90;;;5.30;;
56718;SDS011;42597;40.636;0.278;2023-04-28T01:14:50;7.13;;;5.50;;
56718;SDS011;42597;40.636;0.278;2023-04-28T01:17:16;9.55;;;5.72;;
56718;SDS011;42597;40.636;0.278;2023-04-28T01:19:42;10.73;;;5.88;;
56718;SDS011;42597;40.636;0.278;2023-04-28T01:22:08;9.35;;;6.53;;
56718;SDS011;42597;40.636;0.278;2023-04-28T01:24:40;7.50;;;5.88;;
56718;SDS011;42597;40.636;0.278;2023-04-28T01:27:06;14.75;;;5.38;;
56718;SDS011;42597;40.636;0.278;2023-04-28T01:29:31;16.65;;;5.97;;
56718;SDS011;42597;40.636;0.278;2023-04-28T01:31:57;8.65;;;4.88;;
56718;SDS011;42597;40.636;0.278;2023-04-28T01:34:23;16.33;;;6.13;;
56718;SDS011;42597;40.636;0.278;2023-04-28T01:36:49;7.30;;;5.05;;
56718;SDS011;42597;40.636;0.278;2023-04-28T01:39:14;8.45;;;5.43;;
56718;SDS011;42597;40.636;0.278;2023-04-28T01:41:41;7.03;;;4.32;;
56718;SDS011;42597;40.636;0.278;2023-04-28T01:44:07;8.40;;;4.95;;
56718;SDS011;42597;40.636;0.278;2023-04-28T01:46:33;5.38;;;3.78;;
56718;SDS011;42597;40.636;0.278;2023-04-28T01:48:59;6.07;;;4.13;;
56718;SDS011;42597;40.636;0.278;2023-04-28T01:51:25;7.90;;;4.53;;
56718;SDS011;42597;40.636;0.278;2023-04-28T01:53:51;8.82;;;5.30;;
56718;SDS011;42597;40.636;0.278;2023-04-28T01:56:17;6.28;;;3.72;;
56718;SDS011;42597;40.636;0.278;2023-04-28T01:58:42;9.65;;;4.47;;
56718;SDS011;42597;40.636;0.278;2023-04-28T02:01:08;6.20;;;3.83;;
56718;SDS011;42597;40.636;0.278;2023-04-28T02:03:34;8.25;;;4.07;;
56718;SDS011;42597;40.636;0.278;2023-04-28T02:06:00;12.38;;;4.80;;
56718;SDS011;42597;40.636;0.278;2023-04-28T02:08:25;7.32;;;4.18;;
56718;SDS011;42597;40.636;0.278;2023-04-28T02:10:51;8.25;;;3.88;;
56718;SDS011;42597;40.636;0.278;2023-04-28T02:13:17;6.03;;;3.97;;
56718;SDS011;42597;40.636;0.278;2023-04-28T02:15:43;6.28;;;4.32;;
56718;SDS011;42597;40.636;0.278;2023-04-28T02:18:09;6.60;;;4.10;;
56718;SDS011;42597;40.636;0.278;2023-04-28T02:20:35;7.30;;;4.53;;
56718;SDS011;42597;40.636;0.278;2023-04-28T02:23:00;7.80;;;4.00;;
56718;SDS011;42597;40.636;0.278;2023-04-28T02:25:26;8.95;;;3.83;;
56718;SDS011;42597;40.636;0.278;2023-04-28T02:27:52;6.22;;;3.70;;
56718;SDS011;42597;40.636;0.278;2023-04-28T02:30:18;7.05;;;3.90;;
56718;SDS011;42597;40.636;0.278;2023-04-28T02:32:44;10.10;;;4.85;;
56718;SDS011;42597;40.636;0.278;2023-04-28T02:35:10;5.50;;;3.63;;
56718;SDS011;42597;40.636;0.278;2023-04-28T02:37:36;8.65;;;4.20;;
56718;SDS011;42597;40.636;0.278;2023-04-28T02:40:01;8.02;;;4.25;;
56718;SDS011;42597;40.636;0.278;2023-04-28T02:42:27;7.22;;;4.40;;
56718;SDS011;42597;40.636;0.278;2023-04-28T02:44:55;9.02;;;4.10;;
56718;SDS011;42597;40.636;0.278;2023-04-28T02:47:21;10.93;;;4.57;;
56718;SDS011;42597;40.636;0.278;2023-04-28T02:49:47;5.05;;;3.72;;
56718;SDS011;42597;40.636;0.278;2023-04-28T02:52:12;6.80;;;4.35;;
56718;SDS011;42597;40.636;0.278;2023-04-28T02:54:38;7.82;;;3.85;;
56718;SDS011;42597;40.636;0.278;2023-04-28T02:57:05;5.05;;;3.35;;
56718;SDS011;42597;40.636;0.278;2023-04-28T02:59:31;6.38;;;4.43;;
56718;SDS011;42597;40.636;0.278;2023-04-28T03:01:56;8.70;;;4.43;;
56718;SDS011;42597;40.636;0.278;2023-04-28T03:04:22;7.30;;;4.93;;
56718;SDS011;42597;40.636;0.278;2023-04-28T03:06:48;14.45;;;5.05;;
56718;SDS011;42597;40.636;0.278;2023-04-28T03:09:14;8.55;;;5.45;;
56718;SDS011;42597;40.636;0.278;2023-04-28T03:11:40;10.85;;;6.43;;
56718;SDS011;42597;40.636;0.278;2023-04-28T03:14:05;8.90;;;6.88;;
56718;SDS011;42597;40.636;0.278;2023-04-28T03:16:31;9.05;;;6.05;;
56718;SDS011;42597;40.636;0.278;2023-04-28T03:18:57;8.50;;;6.38;;
56718;SDS011;42597;40.636;0.278;2023-04-28T03:21:23;8.18;;;6.03;;
56718;SDS011;42597;40.636;0.278;2023-04-28T03:23:50;8.55;;;6.10;;
56718;SDS011;42597;40.636;0.278;2023-04-28T03:26:16;8.48;;;5.70;;
56718;SDS011;42597;40.636;0.278;2023-04-28T03:28:41;9.93;;;6.95;;
56718;SDS011;42597;40.636;0.278;2023-04-28T03:31:07;12.25;;;6.65;;
56718;SDS011;42597;40.636;0.278;2023-04-28T03:33:32;8.38;;;6.03;;
56718;SDS011;42597;40.636;0.278;2023-04-28T03:35:58;10.18;;;5.70;;
56718;SDS011;42597;40.636;0.278;2023-04-28T03:38:24;8.80;;;5.80;;
56718;SDS011;42597;40.636;0.278;2023-04-28T03:40:49;7.55;;;5.47;;
56718;SDS011;42597;40.636;0.278;2023-04-28T03:43:15;13.27;;;6.75;;
56718;SDS011;42597;40.636;0.278;2023-04-28T03:45:41;12.82;;;6.70;;
56718;SDS011;42597;40.636;0.278;2023-04-28T03:48:06;12.65;;;6.07;;
56718;SDS011;42597;40.636;0.278;2023-04-28T03:50:32;8.38;;;7.00;;
56718;SDS011;42597;40.636;0.278;2023-04-28T03:52:58;13.25;;;5.85;;
56718;SDS011;42597;40.636;0.278;2023-04-28T03:55:23;15.57;;;8.43;;
56718;SDS011;42597;40.636;0.278;2023-04-28T03:57:50;11.38;;;8.40;;
56718;SDS011;42597;40.636;0.278;2023-04-28T04:00:16;8.23;;;5.80;;
56718;SDS011;42597;40.636;0.278;2023-04-28T04:02:41;13.50;;;9.65;;
56718;SDS011;42597;40.636;0.278;2023-04-28T04:05:07;10.55;;;7.78;;
56718;SDS011;42597;40.636;0.278;2023-04-28T04:07:33;13.32;;;8.85;;
56718;SDS011;42597;40.636;0.278;2023-04-28T04:09:58;8.32;;;5.65;;
56718;SDS011;42597;40.636;0.278;2023-04-28T04:12:24;9.55;;;5.50;;
56718;SDS011;42597;40.636;0.278;2023-04-28T04:14:49;10.00;;;7.13;;
56718;SDS011;42597;40.636;0.278;2023-04-28T04:17:15;8.60;;;6.50;;
56718;SDS011;42597;40.636;0.278;2023-04-28T04:19:40;14.27;;;7.32;;
56718;SDS011;42597;40.636;0.278;2023-04-28T04:22:06;7.35;;;5.72;;
56718;SDS011;42597;40.636;0.278;2023-04-28T04:24:32;10.02;;;5.95;;
56718;SDS011;42597;40.636;0.278;2023-04-28T04:26:57;13.07;;;7.18;;
56718;SDS011;42597;40.636;0.278;2023-04-28T04:29:23;11.52;;;8.02;;
56718;SDS011;42597;40.636;0.278;2023-04-28T04:31:49;12.80;;;9.63;;
56718;SDS011;42597;40.636;0.278;2023-04-28T04:34:14;10.95;;;8.77;;
56718;SDS011;42597;40.636;0.278;2023-04-28T04:36:40;13.75;;;8.90;;
56718;SDS011;42597;40.636;0.278;2023-04-28T04:39:05;11.82;;;7.57;;
56718;SDS011;42597;40.636;0.278;2023-04-28T04:41:31;18.90;;;9.48;;
56718;SDS011;42597;40.636;0.278;2023-04-28T04:43:56;16.98;;;10.73;;
56718;SDS011;42597;40.636;0.278;2023-04-28T04:46:22;16.90;;;9.75;;
56718;SDS011;42597;40.636;0.278;2023-04-28T04:48:48;13.15;;;10.57;;
56718;SDS011;42597;40.636;0.278;2023-04-28T04:51:13;14.68;;;11.40;;
56718;SDS011;42597;40.636;0.278;2023-04-28T04:53:39;14.75;;;11.00;;
56718;SDS011;42597;40.636;0.278;2023-04-28T04:56:05;18.38;;;13.70;;
56718;SDS011;42597;40.636;0.278;2023-04-28T04:58:31;24.50;;;16.83;;
56718;SDS011;42597;40.636;0.278;2023-04-28T05:00:57;20.17;;;17.80;;
56718;SDS011;42597;40.636;0.278;2023-04-28T05:03:23;22.00;;;19.08;;
56718;SDS011;42597;40.636;0.278;2023-04-28T05:05:48;27.23;;;19.08;;
56718;SDS011;42597;40.636;0.278;2023-04-28T05:08:14;22.92;;;16.38;;
56718;SDS011;42597;40.636;0.278;2023-04-28T05:10:40;21.10;;;15.30;;
56718;SDS011;42597;40.636;0.278;2023-04-28T05:13:05;17.33;;;14.55;;
56718;SDS011;42597;40.636;0.278;2023-04-28T05:15:31;22.70;;;13.73;;
56718;SDS011;42597;40.636;0.278;2023-04-28T05:17:57;14.88;;;12.65;;
56718;SDS011;42597;40.636;0.278;2023-04-28T05:20:22;17.08;;;11.25;;
56718;SDS011;42597;40.636;0.278;2023-04-28T05:22:48;13.05;;;10.07;;
56718;SDS011;42597;40.636;0.278;2023-04-28T05:25:14;12.02;;;9.55;;
56718;SDS011;42597;40.636;0.278;2023-04-28T05:27:39;14.63;;;9.25;;
56718;SDS011;42597;40.636;0.278;2023-04-28T05:30:06;15.75;;;10.35;;
56718;SDS011;42597;40.636;0.278;2023-04-28T05:32:32;16.02;;;9.85;;
56718;SDS011;42597;40.636;0.278;2023-04-28T05:34:59;11.18;;;8.73;;
56718;SDS011;42597;40.636;0.278;2023-04-28T05:37:25;13.35;;;8.90;;
56718;SDS011;42597;40.636;0.278;2023-04-28T05:39:50;18.35;;;7.88;;
56718;SDS011;42597;40.636;0.278;2023-04-28T05:42:16;9.52;;;6.43;;
56718;SDS011;42597;40.636;0.278;2023-04-28T05:44:41;10.52;;;8.00;;
56718;SDS011;42597;40.636;0.278;2023-04-28T05:47:07;11.45;;;8.52;;
56718;SDS011;42597;40.636;0.278;2023-04-28T05:49:32;11.68;;;9.23;;
56718;SDS011;42597;40.636;0.278;2023-04-28T05:51:58;12.02;;;8.98;;
56718;SDS011;42597;40.636;0.278;2023-04-28T05:54:24;11.77;;;8.85;;
56718;SDS011;42597;40.636;0.278;2023-04-28T05:56:49;11.50;;;9.52;;
56718;SDS011;42597;40.636;0.278;2023-04-28T05:59:15;12.90;;;8.68;;
56718;SDS011;42597;40.636;0.278;2023-04-28T06:01:41;11.93;;;8.18;;
56718;SDS011;42597;40.636;0.278;2023-04-28T06:04:06;12.43;;;9.07;;
56718;SDS011;42597;40.636;0.278;2023-04-28T06:06:32;15.18;;;8.45;;
56718;SDS011;42597;40.636;0.278;2023-04-28T06:08:58;11.75;;;8.50;;
56718;SDS011;42597;40.636;0.278;2023-04-28T06:11:24;10.77;;;7.13;;
56718;SDS011;42597;40.636;0.278;2023-04-28T06:13:50;9.45;;;6.82;;
56718;SDS011;42597;40.636;0.278;2023-04-28T06:16:15;11.35;;;7.60;;
56718;SDS011;42597;40.636;0.278;2023-04-28T06:18:42;10.95;;;6.97;;
56718;SDS011;42597;40.636;0.278;2023-04-28T06:21:07;11.30;;;8.05;;
56718;SDS011;42597;40.636;0.278;2023-04-28T06:23:33;12.25;;;7.85;;
56718;SDS011;42597;40.636;0.278;2023-04-28T06:25:59;11.70;;;7.57;;
56718;SDS011;42597;40.636;0.278;2023-04-28T06:28:25;17.27;;;10.25;;
56718;SDS011;42597;40.636;0.278;2023-04-28T06:30:51;21.42;;;10.82;;
56718;SDS011;42597;40.636;0.278;2023-04-28T06:33:16;14.55;;;10.20;;
56718;SDS011;42597;40.636;0.278;2023-04-28T06:35:42;16.13;;;8.95;;
56718;SDS011;42597;40.636;0.278;2023-04-28T06:38:07;13.23;;;8.57;;
56718;SDS011;42597;40.636;0.278;2023-04-28T06:40:33;9.90;;;6.72;;
56718;SDS011;42597;40.636;0.278;2023-04-28T06:42:58;11.23;;;7.60;;
56718;SDS011;42597;40.636;0.278;2023-04-28T06:45:24;13.85;;;7.43;;
56718;SDS011;42597;40.636;0.278;2023-04-28T06:47:49;9.07;;;6.72;;
56718;SDS011;42597;40.636;0.278;2023-04-28T06:50:15;9.40;;;7.63;;
56718;SDS011;42597;40.636;0.278;2023-04-28T06:52:41;15.77;;;8.60;;
56718;SDS011;42597;40.636;0.278;2023-04-28T06:55:06;15.77;;;9.07;;
56718;SDS011;42597;40.636;0.278;2023-04-28T06:57:36;15.35;;;8.88;;
56718;SDS011;42597;40.636;0.278;2023-04-28T07:00:06;18.45;;;10.05;;
56718;SDS011;42597;40.636;0.278;2023-04-28T07:02:32;12.27;;;9.30;;
56718;SDS011;42597;40.636;0.278;2023-04-28T07:04:59;17.02;;;10.18;;
56718;SDS011;42597;40.636;0.278;2023-04-28T07:07:24;19.00;;;10.70;;
56718;SDS011;42597;40.636;0.278;2023-04-28T07:09:50;14.05;;;9.93;;
56718;SDS011;42597;40.636;0.278;2023-04-28T07:12:17;14.38;;;10.15;;
56718;SDS011;42597;40.636;0.278;2023-04-28T07:14:43;17.05;;;10.38;;
56718;SDS011;42597;40.636;0.278;2023-04-28T07:17:08;11.98;;;8.52;;
56718;SDS011;42597;40.636;0.278;2023-04-28T07:19:34;16.27;;;9.65;;
56718;SDS011;42597;40.636;0.278;2023-04-28T07:22:00;10.77;;;8.80;;
56718;SDS011;42597;40.636;0.278;2023-04-28T07:24:26;15.20;;;9.48;;
56718;SDS011;42597;40.636;0.278;2023-04-28T07:26:52;14.20;;;9.57;;
56718;SDS011;42597;40.636;0.278;2023-04-28T07:29:18;13.05;;;10.43;;
56718;SDS011;42597;40.636;0.278;2023-04-28T07:31:43;13.05;;;8.98;;
56718;SDS011;42597;40.636;0.278;2023-04-28T07:34:09;11.63;;;7.60;;
56718;SDS011;42597;40.636;0.278;2023-04-28T07:36:34;14.95;;;9.63;;
56718;SDS011;42597;40.636;0.278;2023-04-28T07:39:00;15.00;;;9.55;;
56718;SDS011;42597;40.636;0.278;2023-04-28T07:41:26;14.07;;;9.30;;
56718;SDS011;42597;40.636;0.278;2023-04-28T07:43:53;11.23;;;8.20;;
56718;SDS011;42597;40.636;0.278;2023-04-28T07:46:18;8.93;;;6.97;;
56718;SDS011;42597;40.636;0.278;2023-04-28T07:48:44;12.50;;;9.27;;
56718;SDS011;42597;40.636;0.278;2023-04-28T07:51:10;13.02;;;9.57;;
56718;SDS011;42597;40.636;0.278;2023-04-28T07:53:35;11.15;;;6.85;;
56718;SDS011;42597;40.636;0.278;2023-04-28T07:56:01;12.45;;;9.02;;
56718;SDS011;42597;40.636;0.278;2023-04-28T07:58:26;13.57;;;8.82;;
56718;SDS011;42597;40.636;0.278;2023-04-28T08:00:52;10.68;;;8.55;;
56718;SDS011;42597;40.636;0.278;2023-04-28T08:03:18;12.82;;;11.63;;
56718;SDS011;42597;40.636;0.278;2023-04-28T08:05:43;16.85;;;11.35;;
56718;SDS011;42597;40.636;0.278;2023-04-28T08:08:09;11.40;;;6.40;;
56718;SDS011;42597;40.636;0.278;2023-04-28T08:10:35;14.02;;;10.13;;
56718;SDS011;42597;40.636;0.278;2023-04-28T08:13:04;10.18;;;7.25;;
56718;SDS011;42597;40.636;0.278;2023-04-28T08:15:30;20.45;;;10.43;;
56718;SDS011;42597;40.636;0.278;2023-04-28T08:17:55;11.45;;;9.00;;
56718;SDS011;42597;40.636;0.278;2023-04-28T08:20:21;9.85;;;6.78;;
56718;SDS011;42597;40.636;0.278;2023-04-28T08:22:47;7.82;;;6.05;;
56718;SDS011;42597;40.636;0.278;2023-04-28T08:25:12;9.90;;;6.47;;
56718;SDS011;42597;40.636;0.278;2023-04-28T08:27:38;14.52;;;8.45;;
56718;SDS011;42597;40.636;0.278;2023-04-28T08:30:07;14.57;;;7.13;;
56718;SDS011;42597;40.636;0.278;2023-04-28T08:32:33;17.73;;;12.15;;
56718;SDS011;42597;40.636;0.278;2023-04-28T08:34:58;12.27;;;9.35;;
56718;SDS011;42597;40.636;0.278;2023-04-28T08:37:27;10.15;;;8.48;;
56718;SDS011;42597;40.636;0.278;2023-04-28T08:39:53;11.32;;;6.82;;
56718;SDS011;42597;40.636;0.278;2023-04-28T08:42:29;11.20;;;6.85;;
56718;SDS011;42597;40.636;0.278;2023-04-28T08:44:58;10.27;;;6.45;;
56718;SDS011;42597;40.636;0.278;2023-04-28T08:47:29;8.65;;;5.80;;
56718;SDS011;42597;40.636;0.278;2023-04-28T08:50:08;10.65;;;6.30;;
56718;SDS011;42597;40.636;0.278;2023-04-28T08:52:34;9.32;;;6.45;;
56718;SDS011;42597;40.636;0.278;2023-04-28T08:55:02;8.98;;;5.93;;
56718;SDS011;42597;40.636;0.278;2023-04-28T08:57:38;9.80;;;6.38;;
56718;SDS011;42597;40.636;0.278;2023-04-28T09:00:12;8.40;;;5.90;;
56718;SDS011;42597;40.636;0.278;2023-04-28T09:02:39;13.02;;;10.30;;
56718;SDS011;42597;40.636;0.278;2023-04-28T09:05:09;9.90;;;6.75;;
56718;SDS011;42597;40.636;0.278;2023-04-28T09:07:36;13.00;;;7.40;;
56718;SDS011;42597;40.636;0.278;2023-04-28T09:12:47;9.60;;;5.95;;
56718;SDS011;42597;40.636;0.278;2023-04-28T09:15:26;8.60;;;5.90;;
56718;SDS011;42597;40.636;0.278;2023-04-28T09:17:53;9.73;;;5.28;;
56718;SDS011;42597;40.636;0.278;2023-04-28T09:20:22;8.40;;;4.88;;
56718;SDS011;42597;40.636;0.278;2023-04-28T09:22:49;14.25;;;5.60;;
56718;SDS011;42597;40.636;0.278;2023-04-28T09:25:16;8.98;;;5.72;;
56718;SDS011;42597;40.636;0.278;2023-04-28T09:27:43;9.40;;;6.15;;
56718;SDS011;42597;40.636;0.278;2023-04-28T09:30:09;8.82;;;5.78;;
56718;SDS011;42597;40.636;0.278;2023-04-28T09:32:35;12.70;;;4.60;;
56718;SDS011;42597;40.636;0.278;2023-04-28T09:35:01;7.32;;;4.30;;
56718;SDS011;42597;40.636;0.278;2023-04-28T09:37:29;8.05;;;5.38;;
56718;SDS011;42597;40.636;0.278;2023-04-28T09:39:56;9.70;;;4.72;;
56718;SDS011;42597;40.636;0.278;2023-04-28T09:42:35;10.15;;;4.50;;
56718;SDS011;42597;40.636;0.278;2023-04-28T09:45:03;9.57;;;4.70;;
56718;SDS011;42597;40.636;0.278;2023-04-28T09:47:30;11.32;;;4.05;;
56718;SDS011;42597;40.636;0.278;2023-04-28T09:49:58;7.18;;;4.22;;
56718;SDS011;42597;40.636;0.278;2023-04-28T09:52:24;6.60;;;3.88;;
56718;SDS011;42597;40.636;0.278;2023-04-28T09:54:52;9.57;;;4.18;;
56718;SDS011;42597;40.636;0.278;2023-04-28T09:57:19;8.63;;;3.50;;
56718;SDS011;42597;40.636;0.278;2023-04-28T09:59:47;7.53;;;3.67;;
56718;SDS011;42597;40.636;0.278;2023-04-28T10:02:17;8.93;;;3.60;;
56718;SDS011;42597;40.636;0.278;2023-04-28T10:04:45;6.80;;;3.67;;
56718;SDS011;42597;40.636;0.278;2023-04-28T10:07:12;8.88;;;3.88;;
56718;SDS011;42597;40.636;0.278;2023-04-28T10:09:39;7.68;;;3.63;;
56718;SDS011;42597;40.636;0.278;2023-04-28T10:12:09;8.38;;;3.67;;
56718;SDS011;42597;40.636;0.278;2023-04-28T10:14:35;9.20;;;3.22;;
56718;SDS011;42597;40.636;0.278;2023-04-28T10:17:02;5.50;;;2.92;;
56718;SDS011;42597;40.636;0.278;2023-04-28T10:19:30;8.35;;;3.75;;
56718;SDS011;42597;40.636;0.278;2023-04-28T10:27:33;6.78;;;3.72;;
56718;SDS011;42597;40.636;0.278;2023-04-28T10:32:40;6.15;;;3.50;;
56718;SDS011;42597;40.636;0.278;2023-04-28T10:38:02;9.60;;;4.95;;
56718;SDS011;42597;40.636;0.278;2023-04-28T10:40:35;6.20;;;3.63;;
56718;SDS011;42597;40.636;0.278;2023-04-28T10:43:06;16.40;;;6.22;;
56718;SDS011;42597;40.636;0.278;2023-04-28T10:48:22;10.48;;;4.50;;
56718;SDS011;42597;40.636;0.278;2023-04-28T10:56:29;8.65;;;4.38;;
56718;SDS011;42597;40.636;0.278;2023-04-28T11:03:48;13.20;;;5.00;;
56718;SDS011;42597;40.636;0.278;2023-04-28T11:06:40;8.02;;;3.47;;
56718;SDS011;42597;40.636;0.278;2023-04-28T11:12:24;11.10;;;3.63;;
56718;SDS011;42597;40.636;0.278;2023-04-28T11:16:51;10.57;;;3.45;;
56718;SDS011;42597;40.636;0.278;2023-04-28T11:19:24;4.70;;;3.13;;
56718;SDS011;42597;40.636;0.278;2023-04-28T11:21:52;10.55;;;3.42;;
56718;SDS011;42597;40.636;0.278;2023-04-28T11:24:20;7.90;;;3.47;;
56718;SDS011;42597;40.636;0.278;2023-04-28T11:26:46;8.77;;;3.88;;
56718;SDS011;42597;40.636;0.278;2023-04-28T11:29:12;7.03;;;2.88;;
56718;SDS011;42597;40.636;0.278;2023-04-28T11:31:39;5.95;;;3.13;;
56718;SDS011;42597;40.636;0.278;2023-04-28T11:34:17;7.85;;;2.85;;
56718;SDS011;42597;40.636;0.278;2023-04-28T11:36:43;6.47;;;3.60;;
56718;SDS011;42597;40.636;0.278;2023-04-28T11:39:10;7.05;;;2.95;;
56718;SDS011;42597;40.636;0.278;2023-04-28T11:41:37;6.35;;;2.95;;
56718;SDS011;42597;40.636;0.278;2023-04-28T11:44:14;11.47;;;3.30;;
56718;SDS011;42597;40.636;0.278;2023-04-28T11:46:51;6.85;;;3.00;;
56718;SDS011;42597;40.636;0.278;2023-04-28T11:49:28;4.63;;;2.70;;
56718;SDS011;42597;40.636;0.278;2023-04-28T11:52:05;6.38;;;3.25;;
56718;SDS011;42597;40.636;0.278;2023-04-28T11:54:32;6.90;;;2.85;;
56718;SDS011;42597;40.636;0.278;2023-04-28T11:56:59;7.65;;;2.92;;
56718;SDS011;42597;40.636;0.278;2023-04-28T11:59:32;7.88;;;3.10;;
56718;SDS011;42597;40.636;0.278;2023-04-28T12:09:27;7.35;;;2.85;;
56718;SDS011;42597;40.636;0.278;2023-04-28T12:11:57;5.72;;;3.15;;
56718;SDS011;42597;40.636;0.278;2023-04-28T12:14:24;8.07;;;2.38;;
56718;SDS011;42597;40.636;0.278;2023-04-28T12:16:50;5.22;;;2.70;;
56718;SDS011;42597;40.636;0.278;2023-04-28T12:19:16;7.03;;;2.55;;
56718;SDS011;42597;40.636;0.278;2023-04-28T12:21:56;9.00;;;2.90;;
56718;SDS011;42597;40.636;0.278;2023-04-28T12:24:29;4.78;;;2.33;;
56718;SDS011;42597;40.636;0.278;2023-04-28T12:29:41;12.55;;;3.53;;
56718;SDS011;42597;40.636;0.278;2023-04-28T12:32:08;7.40;;;2.95;;
56718;SDS011;42597;40.636;0.278;2023-04-28T12:34:36;5.20;;;2.13;;
56718;SDS011;42597;40.636;0.278;2023-04-28T12:37:04;8.65;;;2.72;;
56718;SDS011;42597;40.636;0.278;2023-04-28T12:39:30;6.57;;;2.58;;
56718;SDS011;42597;40.636;0.278;2023-04-28T12:41:58;10.32;;;2.53;;
56718;SDS011;42597;40.636;0.278;2023-04-28T12:44:24;5.32;;;2.67;;
56718;SDS011;42597;40.636;0.278;2023-04-28T12:46:52;7.40;;;2.47;;
56718;SDS011;42597;40.636;0.278;2023-04-28T12:49:18;5.82;;;2.65;;
56718;SDS011;42597;40.636;0.278;2023-04-28T12:51:43;7.50;;;3.08;;
56718;SDS011;42597;40.636;0.278;2023-04-28T12:54:09;5.88;;;2.83;;
56718;SDS011;42597;40.636;0.278;2023-04-28T12:56:35;7.13;;;2.90;;
56718;SDS011;42597;40.636;0.278;2023-04-28T12:59:00;13.48;;;3.42;;
56718;SDS011;42597;40.636;0.278;2023-04-28T13:01:30;7.40;;;3.28;;
56718;SDS011;42597;40.636;0.278;2023-04-28T13:03:55;9.90;;;4.30;;
56718;SDS011;42597;40.636;0.278;2023-04-28T13:06:21;7.45;;;2.30;;
56718;SDS011;42597;40.636;0.278;2023-04-28T13:08:46;5.00;;;2.63;;
56718;SDS011;42597;40.636;0.278;2023-04-28T13:11:13;5.45;;;2.33;;
56718;SDS011;42597;40.636;0.278;2023-04-28T13:13:38;4.97;;;2.42;;
56718;SDS011;42597;40.636;0.278;2023-04-28T13:16:05;12.75;;;3.83;;
56718;SDS011;42597;40.636;0.278;2023-04-28T13:18:30;4.93;;;2.22;;
56718;SDS011;42597;40.636;0.278;2023-04-28T13:20:56;6.78;;;2.28;;
56718;SDS011;42597;40.636;0.278;2023-04-28T13:23:22;6.30;;;2.40;;
56718;SDS011;42597;40.636;0.278;2023-04-28T13:25:49;6.32;;;2.60;;
56718;SDS011;42597;40.636;0.278;2023-04-28T13:28:14;7.20;;;2.30;;
56718;SDS011;42597;40.636;0.278;2023-04-28T13:30:40;4.47;;;1.90;;
56718;SDS011;42597;40.636;0.278;2023-04-28T13:33:05;6.28;;;2.70;;
56718;SDS011;42597;40.636;0.278;2023-04-28T13:35:31;4.15;;;2.22;;
56718;SDS011;42597;40.636;0.278;2023-04-28T13:37:57;4.88;;;2.03;;
56718;SDS011;42597;40.636;0.278;2023-04-28T13:40:28;10.68;;;2.60;;
56718;SDS011;42597;40.636;0.278;2023-04-28T13:42:55;12.77;;;2.50;;
56718;SDS011;42597;40.636;0.278;2023-04-28T13:45:20;5.10;;;2.30;;
56718;SDS011;42597;40.636;0.278;2023-04-28T13:47:46;7.63;;;2.83;;
56718;SDS011;42597;40.636;0.278;2023-04-28T13:50:13;3.53;;;1.80;;
56718;SDS011;42597;40.636;0.278;2023-04-28T13:52:38;8.10;;;2.50;;
56718;SDS011;42597;40.636;0.278;2023-04-28T13:55:04;4.30;;;2.08;;
56718;SDS011;42597;40.636;0.278;2023-04-28T13:57:30;4.55;;;2.10;;
56718;SDS011;42597;40.636;0.278;2023-04-28T13:59:56;14.82;;;2.63;;
56718;SDS011;42597;40.636;0.278;2023-04-28T14:02:21;8.35;;;2.47;;
56718;SDS011;42597;40.636;0.278;2023-04-28T14:04:47;6.45;;;2.30;;
56718;SDS011;42597;40.636;0.278;2023-04-28T14:07:14;5.47;;;1.83;;
56718;SDS011;42597;40.636;0.278;2023-04-28T14:09:40;4.63;;;1.75;;
56718;SDS011;42597;40.636;0.278;2023-04-28T14:12:06;4.20;;;1.60;;
56718;SDS011;42597;40.636;0.278;2023-04-28T14:14:32;3.63;;;2.00;;
56718;SDS011;42597;40.636;0.278;2023-04-28T14:16:58;9.50;;;1.75;;
56718;SDS011;42597;40.636;0.278;2023-04-28T14:19:24;5.38;;;1.92;;
56718;SDS011;42597;40.636;0.278;2023-04-28T14:21:51;6.95;;;2.40;;
56718;SDS011;42597;40.636;0.278;2023-04-28T14:24:17;5.95;;;2.13;;
56718;SDS011;42597;40.636;0.278;2023-04-28T14:26:44;1.92;;;1.63;;
56718;SDS011;42597;40.636;0.278;2023-04-28T14:29:10;6.53;;;2.55;;
56718;SDS011;42597;40.636;0.278;2023-04-28T14:31:36;5.72;;;2.17;;
56718;SDS011;42597;40.636;0.278;2023-04-28T14:34:02;4.05;;;2.10;;
56718;SDS011;42597;40.636;0.278;2023-04-28T14:36:29;7.18;;;2.10;;
56718;SDS011;42597;40.636;0.278;2023-04-28T14:38:57;3.08;;;1.50;;
56718;SDS011;42597;40.636;0.278;2023-04-28T14:41:23;3.78;;;2.47;;
56718;SDS011;42597;40.636;0.278;2023-04-28T14:43:48;6.75;;;2.40;;
56718;SDS011;42597;40.636;0.278;2023-04-28T14:46:14;3.75;;;1.85;;
56718;SDS011;42597;40.636;0.278;2023-04-28T14:51:09;4.28;;;1.88;;
56718;SDS011;42597;40.636;0.278;2023-04-28T14:53:34;3.85;;;2.00;;
56718;SDS011;42597;40.636;0.278;2023-04-28T14:56:00;7.20;;;1.98;;
56718;SDS011;42597;40.636;0.278;2023-04-28T14:58:25;6.60;;;2.47;;
56718;SDS011;42597;40.636;0.278;2023-04-28T15:00:51;6.25;;;2.50;;
56718;SDS011;42597;40.636;0.278;2023-04-28T15:03:17;5.55;;;2.72;;
56718;SDS011;42597;40.636;0.278;2023-04-28T15:05:43;7.00;;;2.22;;
56718;SDS011;42597;40.636;0.278;2023-04-28T15:08:08;5.03;;;2.47;;
56718;SDS011;42597;40.636;0.278;2023-04-28T15:10:39;3.65;;;1.65;;
56718;SDS011;42597;40.636;0.278;2023-04-28T15:13:05;4.40;;;1.65;;
56718;SDS011;42597;40.636;0.278;2023-04-28T15:15:31;3.80;;;1.73;;
56718;SDS011;42597;40.636;0.278;2023-04-28T15:17:57;6.97;;;2.15;;
56718;SDS011;42597;40.636;0.278;2023-04-28T15:20:25;4.13;;;1.90;;
56718;SDS011;42597;40.636;0.278;2023-04-28T15:22:52;3.03;;;1.83;;